createdAt,value
2017-08-17T00:01:42.996Z,29.50
2017-08-17T00:04:10.515Z,27.42
2017-08-17T00:06:38.020Z,28.40
2017-08-17T00:09:05.534Z,28.02
2017-08-17T00:11:33.065Z,27.33
2017-08-17T00:14:00.567Z,28.05
2017-08-17T00:16:28.062Z,26.40
2017-08-17T00:18:55.572Z,29.27
2017-08-17T00:21:23.058Z,29.67
2017-08-17T00:23:50.814Z,25.83
2017-08-17T00:26:18.330Z,27.87
2017-08-17T00:28:45.845Z,27.65
2017-08-17T00:31:13.586Z,28.55
2017-08-17T00:33:41.113Z,28.25
2017-08-17T00:36:08.644Z,27.80
2017-08-17T00:38:36.271Z,28.15
2017-08-17T00:41:04.623Z,28.12
2017-08-17T00:43:32.136Z,29.85
2017-08-17T00:45:59.668Z,29.80
2017-08-17T00:48:28.011Z,30.65
2017-08-17T00:50:55.512Z,28.35
2017-08-17T00:53:23.012Z,28.42
2017-08-17T00:55:50.507Z,28.17
2017-08-17T00:58:18.176Z,28.40
2017-08-17T01:00:46.444Z,28.58
2017-08-17T01:03:14.017Z,29.58
2017-08-17T01:05:41.521Z,27.20
2017-08-17T01:08:09.014Z,27.35
2017-08-17T01:10:36.563Z,30.00
2017-08-17T01:13:04.081Z,27.13
2017-08-17T01:15:31.588Z,29.87
2017-08-17T01:17:59.126Z,28.35
2017-08-17T01:20:26.649Z,28.20
2017-08-17T01:22:54.145Z,26.52
2017-08-17T01:25:21.681Z,29.05
2017-08-17T01:27:49.157Z,29.23
2017-08-17T01:30:16.684Z,29.27
2017-08-17T01:32:44.203Z,31.48
2017-08-17T01:35:11.726Z,30.83
2017-08-17T01:37:39.345Z,31.35
2017-08-17T01:40:07.600Z,31.23
2017-08-17T01:42:35.117Z,31.62
2017-08-17T01:45:02.618Z,29.98
2017-08-17T01:47:30.114Z,29.98
2017-08-17T01:49:57.642Z,30.85
2017-08-17T01:52:25.159Z,31.35
2017-08-17T01:54:52.661Z,28.58
2017-08-17T01:57:20.183Z,29.25
2017-08-17T01:59:47.675Z,31.00
2017-08-17T02:02:15.196Z,30.00
2017-08-17T02:04:42.724Z,29.20
2017-08-17T02:07:10.219Z,29.20
2017-08-17T02:09:37.813Z,32.10
2017-08-17T02:12:05.334Z,31.83
2017-08-17T02:14:32.848Z,32.33
2017-08-17T02:17:01.118Z,29.25
2017-08-17T02:19:28.626Z,29.85
2017-08-17T02:21:56.136Z,28.80
2017-08-17T02:24:23.667Z,29.27
2017-08-17T02:26:51.185Z,27.08
2017-08-17T02:29:18.693Z,30.02
2017-08-17T02:31:46.182Z,27.23
2017-08-17T02:34:13.833Z,28.83
2017-08-17T02:36:41.331Z,29.35
2017-08-17T02:39:08.847Z,28.40
2017-08-17T02:41:36.336Z,32.42
2017-08-17T02:44:03.848Z,27.45
2017-08-17T02:46:31.351Z,27.50
2017-08-17T02:48:58.852Z,26.77
2017-08-17T02:51:26.361Z,26.75
2017-08-17T02:53:54.657Z,30.10
2017-08-17T02:56:22.141Z,28.48
2017-08-17T02:58:49.650Z,27.80
2017-08-17T03:01:17.162Z,27.27
2017-08-17T03:03:44.654Z,25.75
2017-08-17T03:06:12.175Z,29.30
2017-08-17T03:08:39.700Z,27.60
2017-08-17T03:11:07.230Z,28.85
2017-08-17T03:13:34.754Z,28.55
2017-08-17T03:16:02.255Z,29.25
2017-08-17T03:18:29.767Z,28.73
2017-08-17T03:20:57.283Z,27.67
2017-08-17T03:23:25.557Z,27.33
2017-08-17T03:25:53.833Z,27.23
2017-08-17T03:28:21.337Z,25.75
2017-08-17T03:30:48.852Z,29.48
2017-08-17T03:33:16.378Z,29.85
2017-08-17T03:35:44.022Z,29.85
2017-08-17T03:38:11.507Z,27.87
2017-08-17T03:40:39.050Z,28.52
2017-08-17T03:43:06.534Z,27.13
2017-08-17T03:45:34.042Z,26.80
2017-08-17T03:48:01.579Z,27.02
2017-08-17T03:50:29.879Z,27.67
2017-08-17T03:52:57.423Z,26.83
2017-08-17T03:55:24.919Z,26.75
2017-08-17T03:57:52.417Z,28.80
2017-08-17T04:00:19.931Z,24.90
2017-08-17T04:02:47.428Z,25.58
2017-08-17T04:05:14.948Z,25.15
2017-08-17T04:07:42.462Z,30.37
2017-08-17T04:10:10.731Z,28.48
2017-08-17T04:12:38.287Z,29.98
2017-08-17T04:15:05.804Z,27.33
2017-08-17T04:17:33.838Z,26.50
2017-08-17T04:20:01.365Z,25.80
2017-08-17T04:22:28.869Z,26.50
2017-08-17T04:24:56.391Z,28.52
2017-08-17T04:27:23.915Z,28.77
2017-08-17T04:29:51.415Z,27.48
2017-08-17T04:32:18.933Z,26.17
2017-08-17T04:34:46.441Z,29.27
2017-08-17T04:37:13.990Z,29.67
2017-08-17T04:39:41.513Z,28.75
2017-08-17T04:42:09.049Z,26.52
2017-08-17T04:44:36.529Z,27.73
2017-08-17T04:47:04.042Z,25.42
2017-08-17T04:49:32.322Z,25.90
2017-08-17T04:52:00.580Z,25.67
2017-08-17T04:54:28.090Z,26.45
2017-08-17T04:57:18.007Z,25.73
2017-08-17T04:59:45.514Z,26.80
2017-08-17T05:02:13.018Z,24.45
2017-08-17T05:04:40.542Z,23.73
2017-08-17T05:07:08.051Z,23.60
2017-08-17T05:09:35.584Z,23.92
2017-08-17T05:12:03.121Z,23.50
2017-08-17T05:14:30.612Z,21.45
2017-08-17T05:16:58.118Z,19.50
2017-08-17T05:19:26.435Z,20.48
2017-08-17T05:21:53.953Z,19.98
2017-08-17T05:24:21.456Z,21.80
2017-08-17T05:26:48.972Z,21.05
2017-08-17T05:29:17.240Z,21.62
2017-08-17T05:31:45.494Z,19.40
2017-08-17T05:34:13.031Z,19.55
2017-08-17T05:36:40.604Z,20.77
2017-08-17T05:39:08.123Z,20.30
2017-08-17T05:41:35.646Z,22.92
2017-08-17T05:44:03.156Z,20.48
2017-08-17T05:46:30.654Z,20.40
2017-08-17T05:48:58.164Z,21.62
2017-08-17T05:51:25.732Z,20.08
2017-08-17T05:53:53.401Z,21.00
2017-08-17T05:56:20.962Z,22.80
2017-08-17T05:58:48.484Z,21.90
2017-08-17T06:01:15.990Z,21.85
2017-08-17T06:03:43.497Z,21.90
2017-08-17T06:06:11.877Z,20.50
2017-08-17T06:08:39.391Z,20.27
2017-08-17T06:11:06.974Z,21.67
2017-08-17T06:13:34.704Z,20.88
2017-08-17T06:16:02.218Z,22.35
2017-08-17T06:18:30.492Z,22.35
2017-08-17T06:20:58.009Z,25.90
2017-08-17T06:23:25.540Z,26.77
2017-08-17T06:25:53.111Z,28.00
2017-08-17T06:28:20.614Z,25.02
2017-08-17T06:30:48.121Z,24.67
2017-08-17T06:33:15.738Z,26.70
2017-08-17T06:35:43.224Z,27.40
2017-08-17T06:38:10.745Z,26.95
2017-08-17T06:40:38.269Z,28.75
2017-08-17T06:43:05.794Z,27.25
2017-08-17T06:45:33.318Z,25.40
2017-08-17T06:48:00.824Z,27.48
2017-08-17T06:50:29.095Z,24.95
2017-08-17T06:52:57.362Z,23.55
2017-08-17T06:55:25.831Z,25.23
2017-08-17T06:57:53.388Z,23.12
2017-08-17T07:00:20.896Z,21.40
2017-08-17T07:02:48.418Z,23.52
2017-08-17T07:05:15.925Z,22.50
2017-08-17T07:07:43.443Z,22.25
2017-08-17T07:10:10.953Z,22.23
2017-08-17T07:12:38.478Z,19.83
2017-08-17T07:15:06.753Z,19.83
2017-08-17T07:17:35.018Z,20.55
2017-08-17T07:20:03.300Z,16.65
2017-08-17T07:22:31.576Z,15.80
2017-08-17T07:25:00.102Z,17.05
2017-08-17T07:27:27.667Z,16.75
2017-08-17T07:29:55.158Z,13.98
2017-08-17T07:32:22.691Z,16.02
2017-08-17T07:34:50.220Z,14.75
2017-08-17T07:37:17.772Z,15.35
2017-08-17T07:39:45.279Z,14.77
2017-08-17T07:42:12.777Z,14.02
2017-08-17T07:44:40.269Z,13.43
2017-08-17T07:47:07.763Z,13.30
2017-08-17T07:49:35.266Z,13.95
2017-08-17T07:52:02.860Z,13.62
2017-08-17T07:54:30.356Z,15.35
2017-08-17T07:56:57.896Z,14.05
2017-08-17T07:59:25.431Z,12.52
2017-08-17T08:01:52.933Z,14.68
2017-08-17T08:04:20.459Z,12.55
2017-08-17T08:06:47.957Z,12.37
2017-08-17T08:09:15.442Z,10.75
2017-08-17T08:11:43.183Z,11.27
2017-08-17T08:14:10.723Z,11.75
2017-08-17T08:16:38.239Z,11.38
2017-08-17T08:19:05.761Z,11.80
2017-08-17T08:21:33.280Z,10.45
2017-08-17T08:24:00.800Z,9.45
2017-08-17T08:26:28.322Z,9.15
2017-08-17T08:28:55.804Z,12.57
2017-08-17T08:31:24.065Z,11.50
2017-08-17T08:33:51.594Z,10.70
2017-08-17T08:36:19.105Z,9.32
2017-08-17T08:38:46.611Z,10.75
2017-08-17T08:41:14.103Z,9.50
2017-08-17T08:43:41.609Z,9.85
2017-08-17T08:46:09.107Z,9.30
2017-08-17T08:48:36.674Z,8.57
2017-08-17T08:51:04.194Z,9.50
2017-08-17T08:53:31.751Z,9.57
2017-08-17T08:55:59.308Z,8.90
2017-08-17T08:58:26.801Z,9.45
2017-08-17T09:00:54.304Z,8.45
2017-08-17T09:03:21.805Z,9.80
2017-08-17T09:05:49.392Z,9.82
2017-08-17T09:08:16.927Z,9.82
2017-08-17T09:10:44.425Z,7.50
2017-08-17T09:13:12.678Z,8.60
2017-08-17T09:15:40.637Z,7.82
2017-08-17T09:18:08.166Z,8.10
2017-08-17T09:20:35.666Z,7.75
2017-08-17T09:23:03.230Z,6.28
2017-08-17T09:25:30.817Z,7.53
2017-08-17T09:27:59.713Z,8.00
2017-08-17T09:30:27.995Z,8.60
2017-08-17T09:32:56.243Z,9.00
2017-08-17T09:35:23.778Z,8.27
2017-08-17T09:37:51.291Z,7.00
2017-08-17T09:40:18.797Z,7.30
2017-08-17T09:42:46.299Z,7.72
2017-08-17T09:45:14.682Z,7.75
2017-08-17T09:47:50.407Z,8.10
2017-08-17T09:50:17.909Z,7.95
2017-08-17T09:52:45.433Z,7.07
2017-08-17T09:55:12.944Z,6.95
2017-08-17T09:57:40.523Z,7.72
2017-08-17T10:00:08.024Z,7.93
2017-08-17T10:02:35.564Z,7.10
2017-08-17T10:05:03.094Z,6.40
2017-08-17T10:07:31.805Z,7.25
2017-08-17T10:09:59.334Z,7.85
2017-08-17T10:12:26.852Z,7.80
2017-08-17T10:14:54.364Z,6.90
2017-08-17T10:17:21.880Z,6.30
2017-08-17T10:19:49.380Z,5.82
2017-08-17T10:22:16.873Z,5.57
2017-08-17T10:24:45.164Z,6.32
2017-08-17T10:27:13.432Z,6.10
2017-08-17T10:29:40.913Z,5.22
2017-08-17T10:32:08.418Z,5.35
2017-08-17T10:34:35.920Z,6.60
2017-08-17T10:37:03.425Z,5.35
2017-08-17T10:39:30.952Z,6.03
2017-08-17T10:41:58.465Z,5.50
2017-08-17T10:44:25.958Z,6.30
2017-08-17T10:46:53.548Z,4.90
2017-08-17T10:49:21.054Z,6.50
2017-08-17T10:51:48.569Z,4.80
2017-08-17T10:54:16.079Z,4.87
2017-08-17T10:56:43.567Z,5.00
2017-08-17T10:59:11.084Z,5.13
2017-08-17T11:01:38.618Z,4.60
2017-08-17T11:04:06.142Z,5.37
2017-08-17T11:06:33.663Z,5.07
2017-08-17T11:09:01.209Z,5.60
2017-08-17T11:11:28.705Z,5.20
2017-08-17T11:13:56.979Z,5.00
2017-08-17T11:16:24.474Z,5.10
2017-08-17T11:18:51.970Z,4.80
2017-08-17T11:21:19.908Z,4.33
2017-08-17T11:23:47.451Z,3.80
2017-08-17T11:26:14.927Z,4.07
2017-08-17T11:28:42.864Z,4.60
2017-08-17T11:31:10.382Z,5.10
2017-08-17T11:33:37.880Z,4.43
2017-08-17T11:36:06.154Z,5.00
2017-08-17T11:38:33.644Z,5.67
2017-08-17T11:41:01.171Z,4.73
2017-08-17T11:43:28.689Z,4.90
2017-08-17T11:45:56.184Z,4.43
2017-08-17T11:48:24.460Z,4.70
2017-08-17T11:50:52.009Z,4.90
2017-08-17T11:53:19.545Z,4.10
2017-08-17T11:55:47.040Z,4.83
2017-08-17T11:58:15.307Z,4.30
2017-08-17T12:00:42.851Z,4.03
2017-08-17T12:03:10.342Z,4.20
2017-08-17T12:05:37.849Z,4.23
2017-08-17T12:08:05.417Z,4.93
2017-08-17T12:10:32.939Z,4.50
2017-08-17T12:13:00.450Z,4.60
2017-08-17T12:15:27.959Z,4.60
2017-08-17T12:17:55.460Z,4.67
2017-08-17T12:20:23.007Z,4.23
2017-08-17T12:22:50.514Z,5.13
2017-08-17T12:25:18.831Z,4.53
2017-08-17T12:27:46.329Z,5.70
2017-08-17T12:30:13.838Z,5.30
2017-08-17T12:32:41.450Z,4.90
2017-08-17T12:35:08.966Z,4.80
2017-08-17T12:37:36.516Z,5.20
2017-08-17T12:40:18.705Z,6.60
2017-08-17T12:42:46.251Z,5.17
2017-08-17T12:45:13.751Z,4.47
2017-08-17T12:47:41.291Z,5.65
2017-08-17T12:50:08.808Z,5.60
2017-08-17T12:52:36.331Z,5.20
2017-08-17T12:55:03.858Z,5.20
2017-08-17T12:57:31.358Z,5.32
2017-08-17T12:59:58.863Z,5.40
2017-08-17T13:02:26.397Z,4.45
2017-08-17T13:05:21.106Z,4.65
2017-08-17T13:07:48.600Z,5.05
2017-08-17T13:10:16.119Z,5.20
2017-08-17T13:12:43.652Z,4.95
2017-08-17T13:15:11.164Z,4.85
2017-08-17T13:17:38.683Z,6.25
2017-08-17T13:20:06.189Z,6.10
2017-08-17T13:22:33.735Z,6.50
2017-08-17T13:25:01.246Z,5.40
2017-08-17T13:27:29.545Z,5.22
2017-08-17T13:29:57.053Z,6.72
2017-08-17T13:32:24.546Z,4.78
2017-08-17T13:34:52.090Z,5.05
2017-08-17T13:37:19.672Z,4.68
2017-08-17T13:39:47.188Z,5.32
2017-08-17T13:42:14.691Z,5.75
2017-08-17T13:44:43.309Z,5.78
2017-08-17T13:47:10.815Z,5.45
2017-08-17T13:49:38.333Z,5.35
2017-08-17T13:52:05.820Z,5.35
2017-08-17T13:54:33.316Z,5.40
2017-08-17T13:57:00.857Z,6.00
2017-08-17T13:59:29.136Z,5.10
2017-08-17T14:01:57.448Z,5.65
2017-08-17T14:04:24.965Z,5.15
2017-08-17T14:06:52.449Z,5.40
2017-08-17T14:09:19.924Z,5.20
2017-08-17T14:11:47.441Z,5.05
2017-08-17T14:14:15.719Z,5.35
2017-08-17T14:16:43.990Z,5.20
2017-08-17T14:19:12.311Z,5.60
2017-08-17T14:21:39.828Z,5.78
2017-08-17T14:24:07.359Z,4.97
2017-08-17T14:26:34.846Z,6.10
2017-08-17T14:29:02.365Z,5.30
2017-08-17T14:31:29.895Z,5.87
2017-08-17T14:33:57.392Z,5.85
2017-08-17T14:36:24.989Z,6.22
2017-08-17T14:38:52.466Z,6.70
2017-08-17T14:41:19.983Z,6.80
2017-08-17T14:43:47.506Z,5.85
2017-08-17T14:46:21.712Z,6.00
2017-08-17T14:48:49.224Z,7.30
2017-08-17T14:51:16.769Z,6.05
2017-08-17T14:53:44.265Z,5.87
2017-08-17T14:56:12.549Z,5.45
2017-08-17T14:58:40.817Z,5.70
2017-08-17T15:01:09.081Z,5.65
2017-08-17T15:03:36.576Z,6.18
2017-08-17T15:06:04.092Z,4.95
2017-08-17T15:08:31.612Z,5.30
2017-08-17T15:10:59.582Z,5.60
2017-08-17T15:13:27.079Z,6.10
2017-08-17T15:15:54.601Z,5.37
2017-08-17T15:18:22.232Z,5.82
2017-08-17T15:20:49.744Z,5.95
2017-08-17T15:23:17.247Z,6.12
2017-08-17T15:25:45.516Z,10.77
2017-08-17T15:28:13.809Z,5.95
2017-08-17T15:30:42.076Z,6.25
2017-08-17T15:33:10.692Z,6.12
2017-08-17T15:35:38.182Z,5.55
2017-08-17T15:38:05.694Z,5.50
2017-08-17T15:40:33.214Z,5.35
2017-08-17T15:43:00.712Z,5.32
2017-08-17T15:45:28.232Z,6.20
2017-08-17T15:47:55.762Z,5.10
2017-08-17T15:50:23.269Z,6.20
2017-08-17T15:52:51.172Z,6.03
2017-08-17T15:55:18.706Z,5.70
2017-08-17T15:57:46.959Z,5.55
2017-08-17T16:00:14.481Z,5.43
2017-08-17T16:02:42.033Z,5.53
2017-08-17T16:05:09.535Z,6.18
2017-08-17T16:07:37.064Z,5.28
2017-08-17T16:10:05.566Z,5.68
2017-08-17T16:12:33.473Z,5.50
2017-08-17T16:15:00.972Z,5.68
2017-08-17T16:17:28.572Z,5.43
2017-08-17T16:19:56.952Z,5.03
2017-08-17T16:22:24.569Z,5.28
2017-08-17T16:24:52.090Z,5.78
2017-08-17T16:27:20.389Z,5.60
2017-08-17T16:29:47.918Z,5.60
2017-08-17T16:32:15.459Z,6.93
2017-08-17T16:34:42.975Z,6.05
2017-08-17T16:37:10.643Z,5.50
2017-08-17T16:39:38.137Z,5.60
2017-08-17T16:42:05.621Z,5.20
2017-08-17T16:44:33.147Z,5.78
2017-08-17T16:47:00.675Z,5.32
2017-08-17T16:49:28.295Z,5.00
2017-08-17T16:51:55.815Z,6.28
2017-08-17T16:54:23.304Z,5.20
2017-08-17T16:56:50.804Z,6.32
2017-08-17T16:59:18.312Z,5.87
2017-08-17T17:01:45.824Z,6.80
2017-08-17T17:04:13.331Z,6.70
2017-08-17T17:06:40.849Z,7.75
2017-08-17T17:09:08.353Z,5.87
2017-08-17T17:11:36.016Z,6.47
2017-08-17T17:14:03.580Z,7.00
2017-08-17T17:16:31.076Z,5.57
2017-08-17T17:18:58.602Z,5.70
2017-08-17T17:21:26.128Z,6.45
2017-08-17T17:23:54.165Z,6.37
2017-08-17T17:26:21.689Z,6.03
2017-08-17T17:28:49.215Z,5.78
2017-08-17T17:31:16.723Z,7.28
2017-08-17T17:33:45.006Z,5.85
2017-08-17T17:36:13.369Z,5.93
2017-08-17T17:38:40.878Z,6.18
2017-08-17T17:41:08.391Z,6.43
2017-08-17T17:43:35.922Z,5.93
2017-08-17T17:46:03.439Z,6.68
2017-08-17T17:48:30.952Z,5.70
2017-08-17T17:50:58.517Z,6.80
2017-08-17T17:53:26.037Z,6.20
2017-08-17T17:55:53.594Z,6.68
2017-08-17T17:58:21.108Z,6.57
2017-08-17T18:00:48.662Z,5.82
2017-08-17T18:03:16.446Z,6.75
2017-08-17T18:05:43.978Z,6.12
2017-08-17T18:08:11.505Z,6.00
2017-08-17T18:10:39.010Z,6.80
2017-08-17T18:13:06.512Z,7.65
2017-08-17T18:15:34.031Z,10.55
2017-08-17T18:18:02.347Z,8.70
2017-08-17T18:20:29.867Z,7.28
2017-08-17T18:22:57.399Z,7.60
2017-08-17T18:25:24.918Z,8.00
2017-08-17T18:27:52.550Z,7.82
2017-08-17T18:30:20.920Z,7.82
2017-08-17T18:32:48.433Z,6.45
2017-08-17T18:35:15.962Z,7.40
2017-08-17T18:37:44.241Z,7.55
2017-08-17T18:40:12.536Z,7.78
2017-08-17T18:42:40.046Z,7.95
2017-08-17T18:45:07.747Z,7.50
2017-08-17T18:47:35.270Z,6.50
2017-08-17T18:50:02.788Z,6.80
2017-08-17T18:52:30.338Z,7.95
2017-08-17T18:54:57.879Z,8.23
2017-08-17T18:57:26.178Z,7.78
2017-08-17T18:59:53.729Z,5.15
2017-08-17T19:02:21.233Z,8.00
2017-08-17T19:04:48.748Z,8.45
2017-08-17T19:07:16.309Z,10.00
2017-08-17T19:09:43.807Z,9.07
2017-08-17T19:12:11.311Z,9.23
2017-08-17T19:14:38.851Z,9.70
2017-08-17T19:17:06.459Z,10.98
2017-08-17T19:19:33.986Z,11.52
2017-08-17T19:22:01.492Z,13.27
2017-08-17T19:24:29.142Z,11.90
2017-08-17T19:26:56.697Z,13.23
2017-08-17T19:29:24.250Z,10.52
2017-08-17T19:31:51.770Z,11.88
2017-08-17T19:34:19.292Z,15.82
2017-08-17T19:36:46.806Z,13.30
2017-08-17T19:39:14.328Z,12.88
2017-08-17T19:41:42.231Z,13.93
2017-08-17T19:44:10.511Z,13.18
2017-08-17T19:46:38.806Z,15.55
2017-08-17T19:49:06.534Z,16.60
2017-08-17T19:51:34.124Z,16.17
2017-08-17T19:54:01.737Z,16.33
2017-08-17T19:56:29.249Z,19.55
2017-08-17T19:58:56.789Z,16.08
2017-08-17T20:01:24.288Z,17.35
2017-08-17T20:03:51.831Z,16.92
2017-08-17T20:06:19.365Z,16.40
2017-08-17T20:08:46.966Z,16.00
2017-08-17T20:11:14.534Z,16.00
2017-08-17T20:13:42.087Z,16.30
2017-08-17T20:16:09.605Z,18.25
2017-08-17T20:18:37.169Z,18.37
2017-08-17T20:21:05.506Z,15.50
2017-08-17T20:23:33.039Z,16.45
2017-08-17T20:26:00.888Z,17.45
2017-08-17T20:28:28.449Z,16.52
2017-08-17T20:30:55.967Z,16.30
2017-08-17T20:33:23.553Z,18.48
2017-08-17T20:35:51.882Z,16.60
2017-08-17T20:38:19.422Z,17.77
2017-08-17T20:40:47.822Z,23.98
2017-08-17T20:43:16.400Z,19.17
2017-08-17T20:45:43.937Z,16.23
2017-08-17T20:48:11.514Z,18.17
2017-08-17T20:50:39.031Z,17.62
2017-08-17T20:53:07.683Z,24.42
2017-08-17T20:55:35.245Z,25.05
2017-08-17T20:58:02.758Z,15.75
2017-08-17T21:00:30.320Z,15.98
2017-08-17T21:02:57.926Z,14.25
2017-08-17T21:05:25.519Z,15.27
2017-08-17T21:07:53.077Z,15.32
2017-08-17T21:10:21.420Z,15.45
2017-08-17T21:12:48.959Z,14.68
2017-08-17T21:15:16.511Z,15.98
2017-08-17T21:17:44.034Z,13.62
2017-08-17T21:20:11.569Z,14.73
2017-08-17T21:22:39.103Z,14.57
2017-08-17T21:25:06.785Z,14.40
2017-08-17T21:27:34.322Z,14.27
2017-08-17T21:30:01.896Z,15.45
2017-08-17T21:32:29.390Z,14.85
2017-08-17T21:34:56.913Z,15.30
2017-08-17T21:37:24.440Z,14.87
2017-08-17T21:39:52.013Z,13.95
2017-08-17T21:42:19.526Z,13.02
2017-08-17T21:44:47.060Z,11.25
2017-08-17T21:47:14.589Z,10.25
2017-08-17T21:49:42.107Z,11.23
2017-08-17T21:52:09.601Z,10.05
2017-08-17T21:54:37.111Z,9.80
2017-08-17T21:57:04.670Z,10.07
2017-08-17T21:59:32.207Z,11.65
2017-08-17T22:01:59.716Z,10.18
2017-08-17T22:04:27.240Z,10.30
2017-08-17T22:06:54.750Z,10.60
2017-08-17T22:09:22.740Z,10.00
2017-08-17T22:11:50.294Z,10.25
2017-08-17T22:14:17.802Z,9.50
2017-08-17T22:16:45.320Z,9.27
2017-08-17T22:19:12.820Z,8.88
2017-08-17T22:21:40.342Z,8.82
2017-08-17T22:24:07.869Z,8.23
2017-08-17T22:26:35.416Z,7.55
2017-08-17T22:29:03.681Z,6.30
2017-08-17T22:31:31.268Z,6.57
2017-08-17T22:33:58.797Z,8.45
2017-08-17T22:36:26.321Z,7.22
2017-08-17T22:38:53.864Z,7.75
2017-08-17T22:41:21.353Z,7.40
2017-08-17T22:43:48.854Z,6.93
2017-08-17T22:46:17.136Z,7.07
2017-08-17T22:48:45.388Z,7.03
2017-08-17T22:51:12.865Z,7.30
2017-08-17T22:53:41.134Z,7.15
2017-08-17T22:56:08.644Z,7.80
2017-08-17T22:58:36.285Z,8.98
2017-08-17T23:01:03.811Z,8.50
2017-08-17T23:03:31.375Z,7.97
2017-08-17T23:05:58.891Z,8.25
2017-08-17T23:08:26.394Z,7.60
2017-08-17T23:10:54.334Z,9.30
2017-08-17T23:13:22.028Z,7.37
2017-08-17T23:15:50.049Z,7.85
2017-08-17T23:18:17.565Z,8.65
2017-08-17T23:20:45.876Z,9.05
2017-08-17T23:23:13.442Z,8.27
2017-08-17T23:25:40.955Z,8.38
2017-08-17T23:28:08.463Z,8.30
2017-08-17T23:30:35.992Z,8.45
2017-08-17T23:33:03.530Z,8.80
2017-08-17T23:35:31.105Z,10.25
2017-08-17T23:37:58.657Z,10.15
2017-08-17T23:40:26.952Z,10.25
2017-08-17T23:42:54.481Z,9.73
2017-08-17T23:45:22.000Z,8.95
2017-08-17T23:47:49.514Z,9.68
2017-08-17T23:50:17.823Z,9.23
2017-08-17T23:52:45.389Z,8.95
2017-08-17T23:55:12.907Z,8.40
2017-08-17T23:57:41.232Z,10.00
